ADDS METAR Data INFO
IDs: Format: Raw Decoded Include TAF

Data at: 0958 UTC 22 May 2018

KASL 220935Z AUTO 00000KT 4SM CLR 19/18 A3000 RMK AO1 T01900180
KASL 220915Z AUTO 00000KT 7SM SCT040 20/19 A2999 RMK AO1 T01990188
KASL 220855Z AUTO 00000KT 5SM BKN040 20/19 A2999 RMK AO1 T01970186
KASL 220835Z AUTO 00000KT 7SM CLR 20/18 A2999 RMK AO1 T01950183
KASL 220815Z AUTO 00000KT 5SM CLR 20/19 A2998 RMK AO1 T01970185
KASL 220755Z AUTO 00000KT 4SM CLR 19/18 A2998 RMK AO1 T01900177
KASL 220735Z AUTO 00000KT 5SM CLR 20/19 A2998 RMK AO1 T01990187
KASL 220715Z AUTO 00000KT 7SM CLR 21/20 A2998 RMK AO1 T02080195
KASL 220655Z AUTO 00000KT 7SM CLR 21/20 A2999 RMK AO1 T02110198
KASL 220635Z AUTO 00000KT 7SM CLR 21/20 A2998 RMK AO1 T02110198
KASL 220615Z AUTO 00000KT 10SM CLR 21/20 A2999 RMK AO1 T02110198
KASL 220555Z AUTO 00000KT 7SM CLR 21/20 A2999 RMK AO1 T02110198 10263 20211 402950183
KASL 220535Z AUTO 00000KT 10SM CLR 21/20 A3000 RMK AO1 T02110196
KASL 220515Z AUTO 00000KT 10SM CLR 21/20 A3000 RMK AO1 T02110195
KASL 220455Z AUTO 00000KT 10SM CLR 21/20 A3000 RMK AO1 T02110195
KASL 220435Z AUTO 00000KT 10SM CLR 22/20 A3000 RMK AO1 T02210202
KASL 220415Z AUTO 00000KT 10SM CLR 23/21 A3000 RMK AO1 T02250205
KASL 220355Z AUTO 00000KT 10SM CLR 24/20 A3000 RMK AO1 T02400203
KASL 220335Z AUTO 00000KT 10SM CLR 24/20 A3000 RMK AO1 T02400201
KASL 220315Z AUTO 00000KT 10SM SCT110 24/20 A3001 RMK AO1 T02400201
KASL 220255Z AUTO 00000KT 10SM BKN110 24/21 A3000 RMK AO1 T02400205
KASL 220235Z AUTO 00000KT 10SM OVC110 24/21 A3000 RMK AO1 T02400213
KASL 220215Z AUTO 00000KT 10SM BKN120 23/21 A3000 RMK AO1 T02330212
KASL 220155Z AUTO 00000KT 10SM SCT120 23/21 A3000 RMK AO1 T02330211
KASL 220135Z AUTO 00000KT 10SM CLR 24/21 A2999 RMK AO1 T02400212
KASL 220115Z AUTO 00000KT 10SM CLR 24/20 A2998 RMK AO1 T02400204
KASL 220055Z AUTO 00000KT 10SM CLR 25/21 A2998 RMK AO1 T02470206
KASL 220035Z AUTO 00000KT 10SM CLR 26/20 A2998 RMK AO1 T02550202
KASL 220015Z AUTO 10SM CLR 26/20 A2997 RMK AO1 T02600201
KASL 212355Z AUTO 00000KT 10SM CLR 26/19 A2997 RMK AO1 T02630192 10295 20256
KASL 212335Z AUTO 00000KT 10SM CLR 28/21 A2997 RMK AO1 T02800206
KASL 212315Z AUTO 00000KT 10SM CLR 28/19 A2997 RMK AO1 T02800193
KASL 212255Z AUTO 00000KT 10SM CLR 30/19 A2997 RMK AO1 T02950187
KASL 212235Z AUTO 01003KT 10SM SCT075 30/18 A2997 RMK AO1 T02950181
KASL 212215Z AUTO 00000KT 10SM SCT075 SCT110 30/19 A2998 RMK AO1 T02950187
KASL 212155Z AUTO 02003KT 10SM SCT095 29/19 A2998 RMK AO1 T02930191
KASL 212135Z AUTO 36005KT 10SM BKN095 26/18 A2999 RMK AO1 T02580184
KASL 212115Z AUTO 35007KT 10SM SCT045 BKN075 OVC095 26/18 A2999 RMK AO1 T02620184
KASL 212055Z AUTO 00000KT 10SM BKN043 BKN050 OVC070 30/20 A2999 RMK AO1 T02950197
KASL 212035Z AUTO 00000KT 10SM SCT043 BKN060 OVC080 30/19 A3000 RMK AO1 T02950188
KASL 212015Z AUTO 00000KT 10SM SCT047 BKN060 BKN075 30/19 A3001 RMK AO1 T02950187
KASL 211955Z AUTO 00000KT 10SM SCT042 SCT050 30/18 A3001 RMK AO1 T02950181
KASL 211935Z AUTO 09003KT 10SM CLR 30/18 A3001 RMK AO1 T02950181
KASL 211915Z AUTO 00000KT 10SM SCT041 30/19 A3002 RMK AO1 T02950186
KASL 211855Z AUTO 08003KT 10SM SCT041 30/18 A3003 RMK AO1 T02950184
KASL 211835Z AUTO 00000KT 10SM SCT039 29/19 A3004 RMK AO1 T02940189
KASL 211815Z AUTO 00000KT 10SM SCT039 28/18 A3004 RMK AO1 T02800180
KASL 211755Z AUTO 00000KT 10SM CLR 28/18 A3005 RMK AO1 T02840181 10295 20196
KASL 211735Z AUTO 13004KT 10SM SCT038 SCT120 28/18 A3006 RMK AO1 T02810181
KASL 211715Z AUTO 00000KT 10SM BKN120 27/17 A3006 RMK AO1 T02680173
KASL 211655Z AUTO 27003KT 10SM OVC120 26/17 A3007 RMK AO1 T02600174
KASL 211635Z AUTO 18003KT 10SM OVC120 26/18 A3007 RMK AO1 T02610182
KASL 211615Z AUTO 32003KT 10SM SCT110 25/18 A3007 RMK AO1 T02520175
KASL 211555Z AUTO 00000KT 10SM CLR 25/19 A3006 RMK AO1 T02520186
KASL 211535Z AUTO 24003KT 10SM CLR 25/19 A3006 RMK AO1 T02450188
KASL 211515Z AUTO 00000KT 10SM SCT120 24/19 A3007 RMK AO1 T02400188
KASL 211455Z AUTO 00000KT 10SM BKN120 23/20 A3007 RMK AO1 T02310197
KASL 211435Z AUTO 00000KT 10SM OVC120 23/20 A3007 RMK AO1 T02250197
KASL 211415Z AUTO 00000KT 10SM SCT120 21/19 A3008 RMK AO1 T02130194
KASL 211355Z AUTO 00000KT 10SM CLR 21/20 A3008 RMK AO1 T02110195
KASL 211335Z AUTO 00000KT 10SM CLR 21/20 A3007 RMK AO1 T02110196
KASL 211315Z AUTO 00000KT 10SM CLR 21/20 A3006 RMK AO1 T02110198
KASL 211255Z AUTO 00000KT 10SM CLR 21/20 A3006 RMK AO1 T02100199
KASL 211235Z AUTO 00000KT 10SM CLR 20/19 A3006 RMK AO1 T01970186
KASL 211215Z AUTO 00000KT 7SM CLR 20/19 A3004 RMK AO1 T01970186
KASL 211155Z AUTO 00000KT 5SM SCT120 19/18 A3004 RMK AO1 60001 70004 T01940184 10194 20183
KASL 211135Z AUTO 00000KT 7SM OVC120 19/18 A3003 RMK AO1 T01900180
KASL 211115Z AUTO 00000KT 7SM BKN120 19/18 A3003 RMK AO1 T01900180
KASL 211055Z AUTO 00000KT 7SM BKN120 19/18 A3002 RMK AO1 T01890178
KASL 211035Z AUTO 00000KT 7SM SCT120 19/18 A3001 RMK AO1 T01900180
KASL 211015Z AUTO 00000KT 7SM CLR 19/18 A3001 RMK AO1 T01900178
KASL 210955Z AUTO 00000KT 10SM SCT049 19/18 A3001 RMK AO1 T01900180
KASL 210935Z AUTO 00000KT 10SM SCT047 SCT120 19/18 A3001 RMK AO1 T01900180
KASL 210915Z AUTO 00000KT 7SM SCT075 SCT095 SCT120 18/17 A3000 RMK AO1 T01830173
KASL 210855Z AUTO 00000KT 7SM SCT120 18/17 A3000 RMK AO1 60001 T01840173
KASL 210835Z AUTO 00000KT 7SM SCT120 18/17 A3000 RMK AO1 T01830172
KASL 210815Z AUTO 00000KT 7SM SCT120 18/17 A3000 RMK AO1 T01830171
KASL 210755Z AUTO 00000KT 7SM SCT110 19/18 A3001 RMK AO1 P0001 T01900178
KASL 210735Z AUTO 00000KT 10SM CLR 19/18 A3001 RMK AO1 T01900178
KASL 210715Z AUTO 00000KT 10SM CLR 18/17 A3001 RMK AO1 T01830172
KASL 210655Z AUTO 00000KT 10SM SCT095 18/17 A3001 RMK AO1 T01830172
KASL 210635Z AUTO 00000KT 7SM SCT095 18/17 A3002 RMK AO1 T01830172
KASL 210615Z AUTO 00000KT 5SM SCT095 18/17 A3002 RMK AO1 T01830172
KASL 210555Z AUTO 00000KT 7SM CLR 18/17 A3003 RMK AO1 T01830171 10225 20183 403220183
KASL 210535Z AUTO 00000KT 7SM CLR 18/17 A3002 RMK AO1 T01830171
KASL 210515Z AUTO 00000KT 10SM SCT120 19/18 A3003 RMK AO1 T01900178
KASL 210455Z AUTO 00000KT 10SM CLR 20/19 A3004 RMK AO1 T01970185
KASL 210435Z AUTO 00000KT 10SM SCT065 20/19 A3004 RMK AO1 T01970185
KASL 210415Z AUTO 00000KT 10SM SCT065 20/18 A3004 RMK AO1 T01970183
KASL 210355Z AUTO 00000KT 10SM CLR 20/18 A3005 RMK AO1 T01970182
KASL 210335Z AUTO 00000KT 10SM SCT120 20/18 A3005 RMK AO1 T01970182
KASL 210315Z AUTO 00000KT 10SM SCT120 20/18 A3004 RMK AO1 T01960183
KASL 210255Z AUTO 00000KT 10SM CLR 20/18 A3003 RMK AO1 T01970182
KASL 210235Z AUTO 00000KT 10SM CLR 20/19 A3002 RMK AO1 T02030186
KASL 210215Z AUTO 00000KT 10SM CLR 21/19 A3002 RMK AO1 T02110193
KASL 210155Z AUTO 00000KT 10SM CLR 21/19 A3001 RMK AO1 T02110192
KASL 210135Z AUTO 18004KT 10SM CLR 21/19 A3001 RMK AO1 T02110190
KASL 210115Z AUTO 18003KT 10SM CLR 21/19 A3001 RMK AO1 T02110188
KASL 210055Z AUTO 00000KT 10SM CLR 21/18 A3000 RMK AO1 T02110182
KASL 210035Z AUTO 00000KT 10SM CLR 22/19 A2999 RMK AO1 T02200187
KASL 210015Z AUTO 00000KT 10SM CLR 22/18 A3000 RMK AO1 T02180183
KASL 202355Z AUTO 00000KT 10SM CLR 23/19 A3000 RMK AO1 60003 T02250192 10322 20219
KASL 202335Z AUTO 25007G14KT 10SM SCT110 22/18 A3001 RMK AO1 T02230184
KASL 202315Z AUTO 23016G24KT 10SM SCT031 SCT070 BKN110 23/18 A3003 RMK AO1 T02250175
KASL 202255Z AUTO 23014G24KT 10SM SCT027 SCT075 SCT110 25/22 A3003 RMK AO1 T02500215
KASL 202235Z AUTO 00000KT 10SM CLR 27/20 A3000 RMK AO1 T02660200
KASL 202215Z AUTO 00000KT 10SM CLR 28/22 A3000 RMK AO1 T02750216